createdAt,value
2023-04-21T00:01:00.251Z,97790.16
2023-04-21T00:03:31.258Z,97791.94
2023-04-21T00:06:00.715Z,97792.34
2023-04-21T00:08:30.219Z,97789.63
2023-04-21T00:10:59.179Z,97799.09
2023-04-21T00:13:28.393Z,97808.38
2023-04-21T00:15:57.613Z,97802.44
2023-04-21T00:18:26.643Z,97807.78
2023-04-21T00:20:55.645Z,97813.53
2023-04-21T00:23:25.072Z,97818.59
2023-04-21T00:25:54.610Z,97820.56
2023-04-21T00:28:23.535Z,97823.50
2023-04-21T00:30:53.022Z,97820.72
2023-04-21T00:33:22.457Z,97829.56
2023-04-21T00:35:51.521Z,97832.47
2023-04-21T00:38:22.311Z,97828.09
2023-04-21T00:40:51.431Z,97834.47
2023-04-21T00:43:20.854Z,97833.75
2023-04-21T00:45:50.018Z,97841.38
2023-04-21T00:48:19.248Z,97840.94
2023-04-21T00:50:48.617Z,97833.91
2023-04-21T00:53:18.644Z,97839.06
2023-04-21T00:55:48.270Z,97841.94
2023-04-21T00:58:17.332Z,97831.97
2023-04-21T01:00:46.505Z,97844.09
2023-04-21T01:03:18.382Z,97840.50
2023-04-21T01:05:47.656Z,97840.13
2023-04-21T01:08:17.385Z,97843.28
2023-04-21T01:10:46.724Z,97842.34
2023-04-21T01:13:15.559Z,97839.56
2023-04-21T01:15:48.069Z,97841.50
2023-04-21T01:18:19.105Z,97855.56
2023-04-21T01:20:51.236Z,97850.59
2023-04-21T01:23:22.049Z,97854.94
2023-04-21T01:25:53.832Z,97867.69
2023-04-21T01:28:27.231Z,97877.34
2023-04-21T01:30:56.443Z,97875.00
2023-04-21T01:33:25.924Z,97879.91
2023-04-21T01:35:56.691Z,97888.50
2023-04-21T01:38:26.149Z,97892.97
2023-04-21T01:40:55.936Z,97899.97
2023-04-21T01:43:26.995Z,97895.25
2023-04-21T01:45:56.489Z,97902.94
2023-04-21T01:48:25.447Z,97907.72
2023-04-21T01:50:54.717Z,97910.88
2023-04-21T01:53:23.701Z,97908.44
2023-04-21T01:55:52.940Z,97912.00
2023-04-21T01:58:23.077Z,97913.78
2023-04-21T02:00:53.101Z,97913.03
2023-04-21T02:03:23.777Z,97913.03
2023-04-21T02:05:53.585Z,97908.88
2023-04-21T02:08:22.611Z,97911.88
2023-04-21T02:10:52.400Z,97923.16
2023-04-21T02:13:21.493Z,97920.53
2023-04-21T02:15:55.035Z,97931.44
2023-04-21T02:18:31.924Z,97936.69
2023-04-21T02:21:00.994Z,97933.09
2023-04-21T02:23:30.208Z,97945.06
2023-04-21T02:25:59.305Z,97934.69
2023-04-21T02:28:28.253Z,97942.16
2023-04-21T02:30:57.595Z,97945.28
2023-04-21T02:33:26.745Z,97944.53
2023-04-21T02:35:55.930Z,97943.75
2023-04-21T02:38:26.665Z,97956.75
2023-04-21T02:40:55.772Z,97954.03
2023-04-21T02:43:25.437Z,97967.63
2023-04-21T02:45:57.215Z,97963.75
2023-04-21T02:48:26.454Z,97969.25
2023-04-21T02:50:55.490Z,97979.22
2023-04-21T02:53:24.816Z,97978.81
2023-04-21T02:55:55.618Z,97988.66
2023-04-21T02:58:25.496Z,97990.50
2023-04-21T03:00:55.125Z,97984.25
2023-04-21T03:03:24.452Z,97988.84
2023-04-21T03:06:01.476Z,97989.81
2023-04-21T03:08:31.227Z,97988.28
2023-04-21T03:11:02.014Z,97995.66
2023-04-21T03:14:38.683Z,98000.28
2023-04-21T03:17:10.700Z,97993.34
2023-04-21T03:19:39.643Z,97998.09
2023-04-21T03:22:08.553Z,97996.63
2023-04-21T03:24:37.745Z,98003.19
2023-04-21T03:27:09.158Z,98013.13
2023-04-21T03:29:41.614Z,98017.25
2023-04-21T03:32:10.578Z,98018.06
2023-04-21T03:34:40.442Z,98020.97
2023-04-21T03:37:11.916Z,98017.63
2023-04-21T03:39:41.036Z,98022.22
2023-04-21T03:42:21.337Z,98024.09
2023-04-21T03:44:51.146Z,98029.50
2023-04-21T03:47:20.352Z,98034.63
2023-04-21T03:49:49.280Z,98034.97
2023-04-21T03:52:18.175Z,98040.94
2023-04-21T03:54:47.453Z,98042.28
2023-04-21T03:57:17.023Z,98039.81
2023-04-21T03:59:45.907Z,98051.69
2023-04-21T04:02:15.382Z,98046.88
2023-04-21T04:04:44.579Z,98056.97
2023-04-21T04:07:14.371Z,98060.88
2023-04-21T04:09:45.798Z,98071.22
2023-04-21T04:12:14.918Z,98062.00
2023-04-21T04:14:43.698Z,98069.00
2023-04-21T04:17:13.300Z,98078.59
2023-04-21T04:19:42.400Z,98075.91
2023-04-21T04:22:11.250Z,98076.50
2023-04-21T04:24:40.329Z,98078.81
2023-04-21T04:27:10.655Z,98078.50
2023-04-21T04:29:42.142Z,98069.41
2023-04-21T04:32:16.300Z,98071.84
2023-04-21T04:34:45.269Z,98079.44
2023-04-21T04:41:37.706Z,98077.94
2023-04-21T04:44:07.374Z,98082.44
2023-04-21T04:46:36.960Z,98081.59
2023-04-21T04:49:06.415Z,98087.94
2023-04-21T04:51:35.696Z,98088.00
2023-04-21T04:54:04.814Z,98089.97
2023-04-21T04:56:34.245Z,98095.53
2023-04-21T04:59:03.350Z,98094.00
2023-04-21T05:01:32.596Z,98095.72
2023-04-21T05:04:02.101Z,98097.56
2023-04-21T05:06:31.606Z,98103.28
2023-04-21T05:09:00.919Z,98108.81
2023-04-21T05:11:30.619Z,98105.66
2023-04-21T05:13:59.716Z,98113.81
2023-04-21T05:16:29.021Z,98115.00
2023-04-21T05:18:58.081Z,98112.97
2023-04-21T05:21:28.717Z,98109.78
2023-04-21T05:23:59.446Z,98106.16
2023-04-21T05:26:30.538Z,98097.91
2023-04-21T05:29:00.111Z,98101.38
2023-04-21T05:31:29.277Z,98091.91
2023-04-21T05:33:58.339Z,98092.59
2023-04-21T05:36:27.493Z,98092.91
2023-04-21T05:38:56.728Z,98088.50
2023-04-21T05:41:26.002Z,98080.81
2023-04-21T05:43:54.866Z,98076.25
2023-04-21T05:46:23.944Z,98075.06
2023-04-21T05:48:53.251Z,98074.09
2023-04-21T05:51:22.300Z,98072.75
2023-04-21T05:53:51.491Z,98057.72
2023-04-21T05:56:20.689Z,98059.31
2023-04-21T05:58:49.830Z,98056.84
2023-04-21T06:01:19.534Z,98061.59
2023-04-21T06:03:51.324Z,98051.28
2023-04-21T06:06:20.500Z,98049.22
2023-04-21T06:08:49.694Z,98053.00
2023-04-21T06:11:19.555Z,98044.31
2023-04-21T06:13:48.950Z,98042.97
2023-04-21T06:16:18.393Z,98042.25
2023-04-21T06:18:47.442Z,98046.44
2023-04-21T06:21:16.943Z,98048.44
2023-04-21T06:23:46.201Z,98049.38
2023-04-21T06:26:15.131Z,98053.47
2023-04-21T06:28:44.302Z,98045.31
2023-04-21T06:31:16.289Z,98034.47
2023-04-21T06:33:45.805Z,98043.16
2023-04-21T06:36:17.832Z,98038.63
2023-04-21T06:38:47.033Z,98046.31
2023-04-21T06:41:16.118Z,98040.75
2023-04-21T06:43:45.728Z,98044.81
2023-04-21T06:46:15.606Z,98051.31
2023-04-21T06:48:44.719Z,98056.34
2023-04-21T06:51:13.796Z,98047.28
2023-04-21T06:53:43.655Z,98058.00
2023-04-21T06:56:12.774Z,98049.81
2023-04-21T06:58:41.960Z,98043.00
2023-04-21T07:01:11.415Z,98048.75
2023-04-21T07:03:40.694Z,98051.13
2023-04-21T07:06:10.081Z,98039.34
2023-04-21T07:08:39.329Z,98041.06
2023-04-21T07:11:08.926Z,98036.34
2023-04-21T07:13:38.193Z,98040.84
2023-04-21T07:16:07.641Z,98028.72
2023-04-21T07:18:37.202Z,98030.81
2023-04-21T07:21:06.558Z,98032.03
2023-04-21T07:23:36.293Z,98015.47
2023-04-21T07:26:05.410Z,98017.28
2023-04-21T07:28:34.686Z,98008.22
2023-04-21T07:31:03.895Z,98005.16
2023-04-21T07:33:33.424Z,98008.22
2023-04-21T07:36:02.516Z,98009.34
2023-04-21T07:38:31.511Z,98013.78
2023-04-21T07:41:01.316Z,98006.50
2023-04-21T07:43:32.019Z,97997.19
2023-04-21T07:46:01.280Z,97999.28
2023-04-21T07:48:30.297Z,97988.44
2023-04-21T07:50:59.906Z,97996.44
2023-04-21T07:53:29.199Z,97994.50
2023-04-21T07:55:58.045Z,97988.38
2023-04-21T07:58:27.468Z,97990.00
2023-04-21T08:00:56.539Z,97995.69
2023-04-21T08:03:28.672Z,97983.97
2023-04-21T08:05:57.767Z,97985.84
2023-04-21T08:08:27.166Z,97987.63
2023-04-21T08:10:56.283Z,97978.91
2023-04-21T08:13:26.356Z,97968.66
2023-04-21T08:15:55.798Z,97972.75
2023-04-21T08:18:24.848Z,97966.63
2023-04-21T08:20:54.138Z,97962.72
2023-04-21T08:23:23.323Z,97955.88
2023-04-21T08:25:52.821Z,97947.63
2023-04-21T08:28:22.075Z,97952.16
2023-04-21T08:30:51.061Z,97936.72
2023-04-21T08:33:20.369Z,97937.59
2023-04-21T08:36:02.555Z,97932.31
2023-04-21T08:38:36.381Z,97927.97
2023-04-21T08:41:06.725Z,97925.78
2023-04-21T08:43:35.840Z,97928.75
2023-04-21T08:46:08.966Z,97921.94
2023-04-21T08:48:39.521Z,97922.00
2023-04-21T08:51:13.767Z,97924.06
2023-04-21T08:53:42.868Z,97923.81
2023-04-21T08:56:12.269Z,97917.84
2023-04-21T08:58:42.755Z,97922.19
2023-04-21T09:01:13.259Z,97916.34
2023-04-21T09:03:42.524Z,97918.09
2023-04-21T09:06:13.940Z,97904.44
2023-04-21T09:08:57.085Z,97903.13
2023-04-21T09:11:26.786Z,97899.56
2023-04-21T09:13:59.549Z,97895.22
2023-04-21T09:16:34.667Z,97892.50
2023-04-21T09:19:04.062Z,97890.84
2023-04-21T09:21:33.099Z,97884.44
2023-04-21T09:24:09.624Z,97880.16
2023-04-21T09:26:44.108Z,97871.28
2023-04-21T09:29:16.203Z,97874.66
2023-04-21T09:31:48.153Z,97870.69
2023-04-21T09:34:28.892Z,97861.88
2023-04-21T09:37:02.836Z,97857.09
2023-04-21T09:39:46.168Z,97861.75
2023-04-21T09:42:29.938Z,97854.00
2023-04-21T09:45:14.132Z,97846.81
2023-04-21T09:47:57.046Z,97849.44
2023-04-21T09:51:03.705Z,97841.88
2023-04-21T09:53:21.646Z,97849.34
2023-04-21T09:55:55.552Z,97843.66
2023-04-21T09:58:28.987Z,97840.13
2023-04-21T10:00:59.505Z,97839.28
2023-04-21T10:03:30.731Z,97830.06
2023-04-21T10:06:00.458Z,97834.16
2023-04-21T10:08:30.292Z,97829.06
2023-04-21T10:11:01.320Z,97819.56
2023-04-21T10:13:30.873Z,97824.41
2023-04-21T10:16:08.940Z,97827.44
2023-04-21T10:18:46.160Z,97827.81
2023-04-21T10:21:23.239Z,97824.59
2023-04-21T10:23:54.783Z,97819.03
2023-04-21T10:26:27.080Z,97820.81
2023-04-21T10:29:04.018Z,97819.59
2023-04-21T10:31:59.710Z,97817.88
2023-04-21T10:34:36.776Z,97815.69
2023-04-21T10:37:06.170Z,97816.41
2023-04-21T10:39:55.760Z,97818.78
2023-04-21T10:42:27.608Z,97819.44
2023-04-21T10:44:59.762Z,97808.56
2023-04-21T10:47:42.519Z,97816.59
2023-04-21T10:50:21.199Z,97819.91
2023-04-21T10:52:56.967Z,97815.13
2023-04-21T10:55:31.557Z,97813.03
2023-04-21T10:58:04.824Z,97809.09
2023-04-21T11:00:34.819Z,97808.84
2023-04-21T11:03:06.744Z,97803.72
2023-04-21T11:05:42.934Z,97809.50
2023-04-21T11:08:17.720Z,97799.38
2023-04-21T11:10:51.483Z,97798.09
2023-04-21T11:13:34.570Z,97793.56
2023-04-21T11:16:09.913Z,97795.94
2023-04-21T11:18:40.233Z,97799.38
2023-04-21T11:21:22.829Z,97796.47
2023-04-21T11:23:54.948Z,97792.19
2023-04-21T11:26:34.322Z,97801.66
2023-04-21T11:29:06.426Z,97801.41
2023-04-21T11:31:37.383Z,97803.16
2023-04-21T11:34:08.360Z,97805.53
2023-04-21T11:36:40.056Z,97807.16
2023-04-21T11:39:14.752Z,97799.56
2023-04-21T11:41:45.575Z,97804.56
2023-04-21T11:44:31.612Z,97801.19
2023-04-21T11:47:00.982Z,97805.59
2023-04-21T11:49:33.488Z,97798.22
2023-04-21T11:52:02.740Z,97809.91
2023-04-21T11:54:31.802Z,97799.72
2023-04-21T11:57:03.170Z,97808.19
2023-04-21T11:59:33.130Z,97809.91
2023-04-21T12:02:02.899Z,97808.78
2023-04-21T12:04:34.442Z,97810.69
2023-04-21T12:07:05.346Z,97802.91
2023-04-21T12:09:37.910Z,97806.66
2023-04-21T12:12:07.680Z,97810.69
2023-04-21T12:14:37.140Z,97808.34
2023-04-21T12:17:08.543Z,97818.63
2023-04-21T12:19:37.911Z,97815.69
2023-04-21T12:22:20.104Z,97821.69
2023-04-21T12:24:49.440Z,97819.38
2023-04-21T12:27:20.101Z,97823.69
2023-04-21T12:29:49.575Z,97817.53
2023-04-21T12:32:18.568Z,97818.22
2023-04-21T12:34:48.575Z,97822.41
2023-04-21T12:37:17.836Z,97823.38
2023-04-21T12:39:47.088Z,97820.38
2023-04-21T12:42:16.068Z,97829.00
2023-04-21T12:44:46.651Z,97828.44
2023-04-21T12:47:15.505Z,97834.84
2023-04-21T12:49:44.726Z,97828.16
2023-04-21T12:52:13.810Z,97828.03
2023-04-21T12:54:43.744Z,97834.81
2023-04-21T12:57:14.953Z,97835.09
2023-04-21T12:59:46.366Z,97833.84
2023-04-21T13:02:15.896Z,97844.00
2023-04-21T13:04:45.361Z,97846.91
2023-04-21T13:07:15.798Z,97851.22
2023-04-21T13:09:45.146Z,97852.59
2023-04-21T13:12:14.271Z,97855.56
2023-04-21T13:14:46.424Z,97845.88
2023-04-21T13:17:17.320Z,97851.28
2023-04-21T13:19:46.615Z,97853.34
2023-04-21T13:22:16.235Z,97853.84
2023-04-21T13:24:45.563Z,97850.22
2023-04-21T13:27:16.035Z,97857.97
2023-04-21T13:29:45.245Z,97861.91
2023-04-21T13:32:14.655Z,97872.91
2023-04-21T13:35:02.518Z,97876.41
2023-04-21T13:37:31.888Z,97878.59
2023-04-21T13:40:00.718Z,97882.84
2023-04-21T13:42:30.426Z,97881.59
2023-04-21T13:45:00.040Z,97882.59
2023-04-21T13:47:28.971Z,97891.19
2023-04-21T13:49:58.133Z,97894.22
2023-04-21T13:52:28.104Z,97897.72
2023-04-21T13:54:57.770Z,97904.78
2023-04-21T13:57:26.496Z,97914.63
2023-04-21T13:59:55.723Z,97917.28
2023-04-21T14:02:26.468Z,97916.44
2023-04-21T14:04:55.938Z,97919.34
2023-04-21T14:07:26.375Z,97924.34
2023-04-21T14:09:55.672Z,97916.16
2023-04-21T14:12:25.653Z,97929.56
2023-04-21T14:14:54.738Z,97928.56
2023-04-21T14:17:24.310Z,97925.25
2023-04-21T14:19:55.077Z,97928.81
2023-04-21T14:22:24.510Z,97931.59
2023-04-21T14:24:53.326Z,97936.97
2023-04-21T14:27:22.866Z,97938.19
2023-04-21T14:29:51.750Z,97935.88
2023-04-21T14:32:21.868Z,97935.50
2023-04-21T14:34:54.457Z,97940.03
2023-04-21T14:37:23.428Z,97937.59
2023-04-21T14:39:52.091Z,97942.09
2023-04-21T14:42:21.367Z,97938.13
2023-04-21T14:44:50.310Z,97941.25
2023-04-21T14:47:20.078Z,97944.25
2023-04-21T14:49:55.264Z,97946.03
2023-04-21T14:52:28.102Z,97945.69
2023-04-21T14:54:57.194Z,97943.50
2023-04-21T14:57:26.440Z,97957.38
2023-04-21T14:59:55.427Z,97950.56
2023-04-21T15:02:24.433Z,97949.00
2023-04-21T15:04:53.468Z,97946.31
2023-04-21T15:07:24.745Z,97948.03
2023-04-21T15:09:54.140Z,97946.25
2023-04-21T15:12:22.813Z,97961.31
2023-04-21T15:14:52.368Z,97955.44
2023-04-21T15:17:21.401Z,97958.38
2023-04-21T15:19:50.409Z,97949.75
2023-04-21T15:22:19.919Z,97959.00
2023-04-21T15:24:49.732Z,97957.47
2023-04-21T15:27:19.047Z,97959.88
2023-04-21T15:29:48.095Z,97965.13
2023-04-21T15:32:17.038Z,97964.97
2023-04-21T15:34:46.188Z,97973.19
2023-04-21T15:37:18.219Z,97967.88
2023-04-21T15:39:47.087Z,97980.03
2023-04-21T15:42:15.880Z,97982.06
2023-04-21T15:44:44.939Z,97986.22
2023-04-21T15:47:13.835Z,97990.38
2023-04-21T15:49:42.614Z,97989.34
2023-04-21T15:52:12.090Z,97991.34
2023-04-21T15:54:41.562Z,97990.53
2023-04-21T15:57:10.533Z,98003.84
2023-04-21T15:59:39.383Z,98001.44
2023-04-21T16:02:08.294Z,98005.03
2023-04-21T16:04:38.118Z,98014.69
2023-04-21T16:07:07.501Z,98019.28
2023-04-21T16:09:36.299Z,98021.59
2023-04-21T16:12:09.758Z,98019.19
2023-04-21T16:14:54.539Z,98017.50
2023-04-21T16:17:28.615Z,98016.56
2023-04-21T16:19:57.637Z,98013.84
2023-04-21T16:22:26.833Z,98013.28
2023-04-21T16:24:55.913Z,98019.63
2023-04-21T16:27:24.826Z,98019.00
2023-04-21T16:29:53.635Z,98019.47
2023-04-21T16:36:46.066Z,98026.22
2023-04-21T16:39:15.095Z,98023.91
2023-04-21T16:41:44.391Z,98023.13
2023-04-21T16:44:13.283Z,98021.19
2023-04-21T16:46:42.525Z,98022.88
2023-04-21T16:49:13.493Z,98015.41
2023-04-21T16:51:45.810Z,98014.50
2023-04-21T16:54:15.373Z,98019.38
2023-04-21T16:56:44.549Z,98015.22
2023-04-21T16:59:13.690Z,98024.16
2023-04-21T17:01:43.063Z,98009.28
2023-04-21T17:04:14.817Z,98013.28
2023-04-21T17:06:44.148Z,98009.00
2023-04-21T17:09:13.174Z,98002.03
2023-04-21T17:11:42.168Z,98004.34
2023-04-21T17:14:11.857Z,97999.47
2023-04-21T17:16:41.209Z,98000.38
2023-04-21T17:19:10.130Z,97998.47
2023-04-21T17:21:39.297Z,98010.41
2023-04-21T17:24:08.381Z,97998.91
2023-04-21T17:26:37.841Z,97990.53
2023-04-21T17:29:07.447Z,97984.53
2023-04-21T17:31:36.836Z,97997.53
2023-04-21T17:34:06.052Z,98004.66
2023-04-21T17:36:34.956Z,97996.97
2023-04-21T17:39:04.030Z,97995.88
2023-04-21T17:41:33.088Z,97983.38
2023-04-21T17:44:02.077Z,97984.44
2023-04-21T17:46:31.439Z,97983.13
2023-04-21T17:49:00.661Z,97984.53
2023-04-21T17:51:29.948Z,97981.34
2023-04-21T17:53:59.131Z,97986.13
2023-04-21T17:56:34.010Z,97984.25
2023-04-21T17:59:03.360Z,97981.66
2023-04-21T18:01:32.417Z,97976.03
2023-04-21T18:04:02.192Z,97976.03
2023-04-21T18:06:33.105Z,97968.91
2023-04-21T18:09:02.267Z,97968.91
2023-04-21T18:11:31.634Z,97969.88
2023-04-21T18:14:00.875Z,97960.78
2023-04-21T18:16:30.408Z,97966.78
2023-04-21T18:18:59.889Z,97963.88
2023-04-21T18:21:29.489Z,97960.13
2023-04-21T18:23:58.631Z,97961.34
2023-04-21T18:26:27.830Z,97956.13
2023-04-21T18:28:59.960Z,97955.47
2023-04-21T18:31:29.762Z,97953.75
2023-04-21T18:33:59.145Z,97949.03
2023-04-21T18:36:32.394Z,97953.28
2023-04-21T18:39:02.502Z,97950.31
2023-04-21T18:41:31.522Z,97953.78
2023-04-21T18:44:00.592Z,97948.38
2023-04-21T18:46:29.783Z,97947.66
2023-04-21T18:48:58.792Z,97948.09
2023-04-21T18:51:32.761Z,97945.91
2023-04-21T18:54:01.914Z,97937.25
2023-04-21T18:56:32.460Z,97944.00
2023-04-21T18:59:01.645Z,97944.63
2023-04-21T19:01:30.992Z,97948.28
2023-04-21T19:04:00.911Z,97941.94
2023-04-21T19:06:33.073Z,97943.53
2023-04-21T19:09:02.367Z,97944.41
2023-04-21T19:11:31.607Z,97935.19
2023-04-21T19:14:00.884Z,97935.00
2023-04-21T19:16:30.592Z,97917.72
2023-04-21T19:18:59.378Z,97916.25
2023-04-21T19:21:28.632Z,97913.63
2023-04-21T19:23:58.250Z,97908.22
2023-04-21T19:26:27.659Z,97908.88
2023-04-21T19:28:57.780Z,97901.44
2023-04-21T19:31:27.431Z,97903.91
2023-04-21T19:33:56.480Z,97896.41
2023-04-21T19:36:25.570Z,97890.31
2023-04-21T19:38:54.677Z,97897.94
2023-04-21T19:41:23.838Z,97897.09
2023-04-21T19:43:53.161Z,97902.38
2023-04-21T19:46:23.481Z,97902.44
2023-04-21T19:48:53.741Z,97892.53
2023-04-21T19:51:23.495Z,97893.00
2023-04-21T19:54:03.129Z,97893.56
2023-04-21T19:56:39.701Z,97892.38
2023-04-21T19:59:09.125Z,97895.63
2023-04-21T20:01:39.147Z,97885.75
2023-04-21T20:04:10.907Z,97882.28
2023-04-21T20:06:42.807Z,97880.47
2023-04-21T20:09:13.084Z,97879.59
2023-04-21T20:11:42.589Z,97876.72
2023-04-21T20:14:12.123Z,97867.66
2023-04-21T20:16:44.022Z,97878.84
2023-04-21T20:19:16.756Z,97874.75
2023-04-21T20:21:46.581Z,97872.38
2023-04-21T20:24:16.151Z,97877.53
2023-04-21T20:26:45.695Z,97866.66
2023-04-21T20:29:16.462Z,97868.19
2023-04-21T20:31:48.407Z,97866.88
2023-04-21T20:34:21.158Z,97860.94
2023-04-21T20:36:55.843Z,97869.53
2023-04-21T20:39:28.470Z,97871.06
2023-04-21T20:42:12.440Z,97873.09
2023-04-21T20:44:45.051Z,97870.03
2023-04-21T20:47:16.674Z,97873.19
2023-04-21T20:49:49.167Z,97869.78
2023-04-21T20:52:21.300Z,97870.78
2023-04-21T20:54:56.071Z,97863.97
2023-04-21T20:57:28.879Z,97868.34
2023-04-21T21:00:00.944Z,97872.31
2023-04-21T21:02:33.673Z,97869.03
2023-04-21T21:05:05.715Z,97862.34
2023-04-21T21:07:37.752Z,97852.75
2023-04-21T21:10:12.466Z,97841.25
2023-04-21T21:12:44.550Z,97842.06
2023-04-21T21:15:16.404Z,97835.00
2023-04-21T21:17:48.081Z,97839.19
2023-04-21T21:20:19.402Z,97836.44
2023-04-21T21:22:51.212Z,97837.00
2023-04-21T21:25:22.665Z,97835.75
2023-04-21T21:27:54.502Z,97836.84
2023-04-21T21:30:25.963Z,97849.81
2023-04-21T21:32:58.094Z,97846.59
2023-04-21T21:35:29.444Z,97847.59
2023-04-21T21:38:01.466Z,97843.75
2023-04-21T21:40:32.728Z,97846.97
2023-04-21T21:43:04.818Z,97840.63
2023-04-21T21:45:36.172Z,97836.78
2023-04-21T21:48:08.907Z,97844.81
2023-04-21T21:50:40.183Z,97839.41
2023-04-21T21:53:12.673Z,97847.84
2023-04-21T21:55:44.078Z,97838.47
2023-04-21T21:58:16.124Z,97837.25
2023-04-21T22:00:48.097Z,97824.84
2023-04-21T22:03:25.337Z,97821.25
2023-04-21T22:05:57.152Z,97803.81
2023-04-21T22:08:29.273Z,97798.53
2023-04-21T22:11:00.702Z,97801.00
2023-04-21T22:13:33.355Z,97802.88
2023-04-21T22:16:05.472Z,97803.59
2023-04-21T22:18:38.286Z,97808.56
2023-04-21T22:21:09.611Z,97815.63
2023-04-21T22:23:41.675Z,97812.47
2023-04-21T22:26:12.858Z,97818.63
2023-04-21T22:28:45.664Z,97822.75
2023-04-21T22:31:17.818Z,97824.91
2023-04-21T22:33:49.902Z,97833.25
2023-04-21T22:36:23.376Z,97832.03
2023-04-21T22:38:55.083Z,97843.22
2023-04-21T22:41:27.236Z,97850.06
2023-04-21T22:44:00.573Z,97856.22
2023-04-21T22:46:35.502Z,97842.31
2023-04-21T22:49:07.650Z,97844.84
2023-04-21T22:51:39.673Z,97851.19
2023-04-21T22:54:11.602Z,97855.66
2023-04-21T22:56:43.102Z,97862.19
2023-04-21T22:59:14.802Z,97851.84
2023-04-21T23:01:46.921Z,97858.72
2023-04-21T23:04:18.237Z,97864.78
2023-04-21T23:06:50.076Z,97862.19
2023-04-21T23:09:22.157Z,97848.47
2023-04-21T23:11:56.041Z,97847.16
2023-04-21T23:14:35.883Z,97853.72
2023-04-21T23:17:08.093Z,97851.13
2023-04-21T23:19:39.893Z,97840.66
2023-04-21T23:22:12.361Z,97839.19
2023-04-21T23:24:43.709Z,97838.00
2023-04-21T23:27:15.630Z,97840.81
2023-04-21T23:29:47.676Z,97844.78
2023-04-21T23:32:20.252Z,97841.28
2023-04-21T23:34:53.835Z,97839.88
2023-04-21T23:37:25.931Z,97844.78
2023-04-21T23:39:57.042Z,97847.69
2023-04-21T23:42:29.193Z,97850.31
2023-04-21T23:45:00.573Z,97849.31
2023-04-21T23:47:32.416Z,97850.75
2023-04-21T23:50:07.984Z,97844.28
2023-04-21T23:52:40.038Z,97848.00
2023-04-21T23:55:14.249Z,97846.91
2023-04-21T23:57:48.125Z,97852.91
